Terminal Aerodrome Forecast
Issued by NWS Rapid City, SD

Home | Current Version | Previous Version | Text Only | Print | Product List | Glossary Off
Versions: 1 2 3 4 5 6 7 8 9 10 11 12 13 14 15 16 17 18 19 20 21 22

000
FTUS43 KUNR 271720
TAFRAP
TAF
KRAP 271720Z 2718/2818 07011KT P6SM VCTS BKN080CB
      TEMPO 2720/2723 P6SM -TSRA BKN080CB
     FM280000 12005KT P6SM SCT100
     FM281200 16008KT 4SM -SHRA BKN060=

USA.gov is the U.S. government's official web portal to all federal, state and local government web resources and services.